Time;durP1;ratioP1;P1;durP2;ratioP2;P2;SDS_P1;SDS_P2;PMS_P1;PMS_P2;Temp;Humidity;BMP_temperature;BMP_pressure;BME280_temperature;BME280_humidity;BME280_pressure;Samples;Min_cycle;Max_cycle;Signal;HPM_P1;HPM_P2
2023/10/09 00:01:51;;;;;;;111.53;105.17;;;14.50;93.80;;;;;;5042247;28;20798;-72
2023/10/09 00:04:17;;;;;;;201.20;191.43;;;14.50;94.00;;;;;;5038149;28;20392;-72
2023/10/09 00:06:43;;;;;;;153.63;146.17;;;14.40;93.90;;;;;;5038281;28;20354;-72
2023/10/09 00:11:58;;;;;;;125.27;118.77;;;14.40;94.20;;;;;;5046224;28;20727;-72
2023/10/09 00:14:30;;;;;;;137.87;130.70;;;14.40;94.30;;;;;;5038556;28;20387;-72
2023/10/09 00:17:18;;;;;;;150.27;142.43;;;14.40;94.20;;;;;;5039019;28;20283;-72
2023/10/09 00:19:46;;;;;;;121.83;115.00;;;14.40;94.50;;;;;;5047693;28;20337;-72
2023/10/09 00:24:49;;;;;;;120.80;114.07;;;14.30;94.90;;;;;;5051472;28;20275;-72
2023/10/09 00:27:15;;;;;;;149.93;141.83;;;14.30;95.20;;;;;;5034688;28;20036;-72
2023/10/09 00:29:45;;;;;;;152.10;143.93;;;14.30;95.50;;;;;;5052710;28;20282;-72
2023/10/09 00:32:27;;;;;;;144.13;136.13;;;14.30;95.40;;;;;;5051599;28;20044;-72
2023/10/09 00:34:59;;;;;;;145.00;137.53;;;14.20;95.50;;;;;;5053444;28;20283;-72
2023/10/09 00:37:33;;;;;;;126.03;118.73;;;14.20;95.50;;;;;;5035790;28;20295;-72
2023/10/09 00:39:59;;;;;;;130.68;123.50;;;14.20;96.20;;;;;;5052824;28;20282;-72
2023/10/09 00:42:27;;;;;;;116.00;109.23;;;14.20;96.10;;;;;;5042596;28;20040;-73
2023/10/09 00:44:54;;;;;;;149.27;141.33;;;14.20;96.20;;;;;;5049108;28;20040;-72
2023/10/09 00:47:20;;;;;;;171.57;162.33;;;14.20;96.50;;;;;;5051717;28;20317;-72
2023/10/09 00:50:03;;;;;;;164.50;155.33;;;14.20;96.40;;;;;;5048583;28;20312;-72
2023/10/09 00:52:43;;;;;;;169.23;160.07;;;14.20;96.10;;;;;;5049978;28;20418;-73
2023/10/09 00:55:14;;;;;;;156.43;147.83;;;14.20;96.10;;;;;;5031912;28;20290;-72
2023/10/09 00:57:57;;;;;;;172.27;162.60;;;14.30;96.20;;;;;;5032034;28;20370;-72
2023/10/09 01:00:32;;;;;;;140.63;132.47;;;14.30;95.90;;;;;;5047178;28;20281;-72
2023/10/09 01:06:44;;;;;;;147.47;138.63;;;14.30;96.40;;;;;;5045167;28;20051;-72
2023/10/09 01:11:20;;;;;;;162.23;151.73;;;14.30;97.10;;;;;;5053030;28;20468;-72
2023/10/09 01:16:17;;;;;;;171.63;160.43;;;14.40;97.80;;;;;;5046444;28;20294;-72
2023/10/09 01:18:50;;;;;;;126.80;116.33;;;14.40;97.70;;;;;;5035933;28;20278;-72
2023/10/09 01:21:17;;;;;;;185.70;174.03;;;14.40;97.50;;;;;;5034250;28;20309;-72
2023/10/09 01:26:39;;;;;;;187.77;174.90;;;14.50;98.50;;;;;;5040303;28;20287;-72
2023/10/09 01:29:19;;;;;;;163.73;152.83;;;14.50;98.60;;;;;;5036998;28;20383;-72
2023/10/09 01:32:00;;;;;;;217.70;204.47;;;14.50;99.80;;;;;;5052129;28;20293;-72
2023/10/09 01:34:42;;;;;;;158.27;146.83;;;14.60;99.90;;;;;;5047813;28;20384;-72
2023/10/09 01:37:22;;;;;;;156.10;143.63;;;14.60;99.80;;;;;;5048628;28;20638;-72
2023/10/09 01:39:59;;;;;;;142.13;131.20;;;14.60;99.90;;;;;;5041830;28;20718;-73
2023/10/09 01:42:44;;;;;;;251.33;235.87;;;14.60;99.90;;;;;;5025129;28;20805;-72
2023/10/09 01:47:53;;;;;;;169.90;158.13;;;14.80;99.90;;;;;;5041566;28;20620;-72
2023/10/09 01:50:22;;;;;;;178.97;166.43;;;14.80;99.90;;;;;;5048558;28;20306;-72
2023/10/09 01:52:48;;;;;;;166.40;154.43;;;14.80;99.90;;;;;;5051883;28;20634;-73
2023/10/09 01:55:27;;;;;;;175.17;163.47;;;14.90;99.90;;;;;;5036587;28;20275;-72
2023/10/09 01:57:53;;;;;;;154.90;142.90;;;14.90;99.90;;;;;;5050984;28;20131;-72
2023/10/09 02:00:23;;;;;;;162.63;151.20;;;14.90;99.90;;;;;;5027339;28;20314;-72
2023/10/09 02:02:50;;;;;;;148.63;138.10;;;14.90;99.90;;;;;;5033288;28;20441;-72
2023/10/09 02:08:03;;;;;;;152.90;142.10;;;14.90;99.90;;;;;;5053378;28;20279;-72
2023/10/09 02:13:11;;;;;;;137.83;127.43;;;14.90;99.90;;;;;;5049601;28;20817;-72
2023/10/09 02:21:12;;;;;;;131.93;121.47;;;14.90;99.90;;;;;;5051505;28;20605;-72
2023/10/09 02:26:08;;;;;;;133.10;122.57;;;14.90;99.90;;;;;;5067416;28;20677;-73
2023/10/09 02:28:35;;;;;;;142.93;132.87;;;14.80;99.90;;;;;;5053382;28;20282;-73
2023/10/09 02:31:12;;;;;;;180.40;168.23;;;14.80;99.90;;;;;;5050623;28;20286;-72
2023/10/09 02:33:41;;;;;;;146.00;135.03;;;14.80;99.90;;;;;;5025868;28;20774;-72
2023/10/09 02:36:07;;;;;;;152.17;141.17;;;14.80;99.90;;;;;;5046270;28;20291;-72
2023/10/09 02:38:37;;;;;;;169.83;157.73;;;14.80;99.90;;;;;;5031593;28;20358;-72
2023/10/09 02:43:46;;;;;;;144.93;134.07;;;14.80;99.90;;;;;;5051127;28;20289;-72
2023/10/09 02:46:28;;;;;;;158.30;147.20;;;14.70;99.90;;;;;;5034482;28;20396;-72
2023/10/09 02:48:56;;;;;;;127.97;118.03;;;14.70;99.90;;;;;;5021859;28;20279;-72
2023/10/09 02:53:57;;;;;;;147.80;137.17;;;14.70;99.90;;;;;;5038940;28;20290;-72
2023/10/09 02:56:24;;;;;;;141.47;131.53;;;14.70;99.90;;;;;;5052563;28;20813;-72
2023/10/09 02:59:05;;;;;;;123.73;115.03;;;14.70;99.90;;;;;;5034459;28;20796;-72
2023/10/09 03:01:31;;;;;;;127.70;118.50;;;14.70;99.90;;;;;;5047543;28;20748;-72
2023/10/09 03:03:59;;;;;;;135.60;126.27;;;14.70;99.90;;;;;;5043072;28;20290;-72
2023/10/09 03:06:28;;;;;;;111.70;103.30;;;14.70;99.90;;;;;;5051398;28;20278;-72
2023/10/09 03:08:54;;;;;;;172.80;162.07;;;14.70;99.90;;;;;;5049228;28;20294;-72
2023/10/09 03:11:20;;;;;;;159.13;149.43;;;14.80;99.90;;;;;;5031789;28;20274;-72
2023/10/09 03:13:47;;;;;;;177.43;167.27;;;14.80;99.90;;;;;;5022878;28;20282;-72
2023/10/09 03:16:18;;;;;;;196.87;186.07;;;14.90;99.90;;;;;;5041719;28;20683;-72
2023/10/09 03:18:53;;;;;;;216.23;204.33;;;15.00;99.90;;;;;;5051873;28;20286;-72
2023/10/09 03:21:20;;;;;;;171.88;162.27;;;15.00;99.90;;;;;;5049656;28;20299;-72
2023/10/09 03:23:49;;;;;;;123.47;115.63;;;15.10;99.90;;;;;;5054488;28;20040;-72
2023/10/09 03:26:17;;;;;;;168.00;158.73;;;15.10;99.90;;;;;;5044489;28;20279;-72
2023/10/09 03:28:45;;;;;;;155.37;146.93;;;15.10;99.90;;;;;;5037584;28;20274;-72
2023/10/09 03:31:11;;;;;;;150.53;142.57;;;15.20;99.90;;;;;;5052178;28;20300;-72
2023/10/09 03:33:38;;;;;;;147.90;139.90;;;15.20;99.90;;;;;;5033268;28;20318;-72
2023/10/09 03:36:07;;;;;;;169.17;160.30;;;15.20;99.90;;;;;;5051190;28;20302;-72
2023/10/09 03:38:34;;;;;;;136.23;129.07;;;15.30;99.90;;;;;;5052791;28;20283;-72
2023/10/09 03:41:06;;;;;;;132.70;125.73;;;15.30;99.90;;;;;;5035545;28;20357;-72
2023/10/09 03:43:40;;;;;;;178.63;169.60;;;15.40;99.90;;;;;;5044873;28;21044;-72
2023/10/09 03:46:32;;;;;;;120.07;112.83;;;15.50;99.90;;;;;;5035465;28;20306;-72
2023/10/09 03:49:00;;;;;;;156.63;148.47;;;15.50;99.90;;;;;;5027707;28;20296;-73
2023/10/09 03:51:27;;;;;;;155.50;147.53;;;15.60;99.90;;;;;;5055338;28;20297;-72
2023/10/09 03:53:53;;;;;;;125.17;118.53;;;15.70;99.90;;;;;;5048056;28;20293;-72
2023/10/09 03:56:21;;;;;;;150.13;142.20;;;15.70;99.90;;;;;;5051132;28;20287;-72
2023/10/09 03:58:50;;;;;;;113.17;107.03;;;15.70;99.90;;;;;;5053229;28;20189;-72
2023/10/09 04:01:29;;;;;;;118.20;112.00;;;15.80;99.90;;;;;;5045445;28;20368;-72
2023/10/09 04:03:55;;;;;;;140.90;133.97;;;15.90;99.90;;;;;;5054012;28;20282;-72
2023/10/09 04:06:33;;;;;;;135.87;128.87;;;15.90;99.90;;;;;;5048838;28;20675;-72
2023/10/09 04:11:57;;;;;;;174.87;165.83;;;16.00;99.90;;;;;;5047030;28;20280;-73
2023/10/09 04:14:32;;;;;;;146.63;139.20;;;16.10;99.90;;;;;;5045793;28;20634;-72
2023/10/09 04:17:06;;;;;;;146.63;138.98;;;16.10;99.90;;;;;;5050226;28;20278;-72
2023/10/09 04:20:30;;;;;;;96.90;91.20;;;16.10;99.80;;;;;;5054363;28;20051;-72
2023/10/09 04:22:26;;;;;;;161.17;152.93;;;16.10;99.60;;;;;;5047806;28;20319;-72
2023/10/09 04:24:53;;;;;;;157.07;149.55;;;16.20;99.40;;;;;;5026333;28;20325;-72
2023/10/09 04:27:26;;;;;;;162.60;154.57;;;16.20;99.40;;;;;;5050911;28;20043;-72
2023/10/09 04:29:54;;;;;;;180.33;171.17;;;16.20;99.30;;;;;;5048352;28;20294;-72
2023/10/09 04:32:24;;;;;;;229.70;219.07;;;16.20;99.20;;;;;;5051458;28;20287;-72
2023/10/09 04:34:57;;;;;;;132.23;125.23;;;16.20;99.10;;;;;;5049715;28;20366;-73
2023/10/09 04:43:06;;;;;;;146.37;138.60;;;16.20;99.20;;;;;;5019078;28;20797;-73
2023/10/09 04:46:06;;;;;;;184.37;175.13;;;16.20;99.20;;;;;;5050743;28;20278;-74
2023/10/09 04:48:33;;;;;;;126.63;120.00;;;16.20;99.10;;;;;;5050348;28;20350;-73
2023/10/09 04:54:12;;;;;;;192.60;182.53;;;16.10;99.40;;;;;;5043164;28;20283;-73
2023/10/09 04:56:53;;;;;;;171.23;162.47;;;16.10;99.60;;;;;;5055010;28;20339;-73
2023/10/09 04:59:19;;;;;;;139.37;132.17;;;16.10;99.50;;;;;;5026765;28;20287;-73
2023/10/09 05:01:57;;;;;;;126.03;118.93;;;16.10;99.50;;;;;;5048052;28;20308;-74
2023/10/09 05:05:47;;;;;;;157.70;149.30;;;16.10;99.60;;;;;;5037754;28;20363;-73
2023/10/09 05:07:23;;;;;;;214.63;204.40;;;16.10;99.70;;;;;;5024676;28;20337;-73
2023/10/09 05:09:56;;;;;;;449.73;426.97;;;16.10;99.70;;;;;;5052253;28;20287;-73
2023/10/09 05:12:26;;;;;;;469.53;446.40;;;16.10;99.90;;;;;;5053384;28;20290;-73
2023/10/09 05:15:08;;;;;;;494.20;470.00;;;16.10;99.90;;;;;;5041977;28;20283;-73
2023/10/09 05:17:35;;;;;;;453.80;431.27;;;16.10;99.90;;;;;;5054241;28;20286;-73
2023/10/09 05:23:23;;;;;;;440.80;418.33;;;16.00;99.90;;;;;;5015183;28;20294;-73
2023/10/09 05:25:55;;;;;;;414.50;394.83;;;16.00;99.90;;;;;;5049457;28;20282;-73
2023/10/09 05:28:25;;;;;;;385.47;367.30;;;16.00;99.90;;;;;;5032563;28;20310;-74
2023/10/09 05:31:02;;;;;;;371.07;353.80;;;16.10;99.90;;;;;;5038340;28;20274;-73
2023/10/09 05:33:29;;;;;;;379.87;361.70;;;16.00;99.90;;;;;;5053605;28;20335;-73
2023/10/09 05:38:46;;;;;;;315.30;301.03;;;16.00;99.90;;;;;;5052518;28;20290;-73
2023/10/09 05:41:31;;;;;;;351.50;335.13;;;16.10;99.90;;;;;;5052471;28;20334;-73
2023/10/09 05:47:15;;;;;;;403.73;385.23;;;16.10;99.90;;;;;;5041040;28;20106;-73
2023/10/09 05:49:45;;;;;;;361.20;344.10;;;16.10;99.90;;;;;;5045224;28;20311;-73
2023/10/09 06:14:03;;;;;;;381.92;363.98;;;16.10;99.90;;;;;;5042732;28;20276;-73
2023/10/09 06:16:41;;;;;;;361.17;344.37;;;16.10;99.90;;;;;;5049754;28;20048;-73
2023/10/09 06:19:08;;;;;;;366.77;349.30;;;16.10;99.90;;;;;;5026471;28;20303;-73
2023/10/09 06:24:23;;;;;;;412.40;392.67;;;16.20;99.90;;;;;;5049651;28;20280;-73
2023/10/09 06:29:38;;;;;;;381.53;363.57;;;16.20;99.90;;;;;;5048515;28;20282;-73
2023/10/09 06:35:14;;;;;;;453.07;430.93;;;16.20;99.90;;;;;;5042339;28;20428;-74
2023/10/09 06:38:21;;;;;;;483.97;460.43;;;16.20;99.90;;;;;;5025979;28;20303;-74
2023/10/09 06:58:57;;;;;;;438.43;417.03;;;16.20;99.90;;;;;;5051101;28;20287;-74
2023/10/09 07:03:53;;;;;;;509.93;484.67;;;16.10;99.90;;;;;;5051533;28;20284;-74
2023/10/09 07:06:29;;;;;;;513.70;487.77;;;16.10;99.90;;;;;;5025985;28;20314;-74
2023/10/09 07:09:15;;;;;;;441.40;420.50;;;16.10;99.90;;;;;;5042057;28;20283;-74
2023/10/09 07:16:57;;;;;;;388.03;369.43;;;16.10;99.90;;;;;;5041103;28;20636;-74
2023/10/09 07:22:23;;;;;;;425.47;405.47;;;16.10;99.90;;;;;;5042812;28;20759;-74
2023/10/09 07:25:14;;;;;;;397.87;379.47;;;16.10;99.90;;;;;;5043705;28;20361;-74
2023/10/09 07:27:48;;;;;;;403.00;384.47;;;16.20;99.90;;;;;;5046829;28;20284;-74
2023/10/09 07:38:20;;;;;;;484.90;460.90;;;16.30;99.90;;;;;;5046229;28;20296;-74
2023/10/09 07:41:33;;;;;;;491.63;467.20;;;16.30;99.90;;;;;;5053220;28;20310;-74
2023/10/09 07:43:45;;;;;;;482.45;457.35;;;16.30;99.90;;;;;;5051425;28;20317;-74
2023/10/09 07:46:51;;;;;;;481.40;458.33;;;16.30;99.90;;;;;;5031271;28;20448;-74
2023/10/09 07:49:25;;;;;;;476.30;453.37;;;16.40;99.90;;;;;;5052195;28;20398;-74
2023/10/09 07:51:52;;;;;;;461.70;438.67;;;16.40;99.90;;;;;;5039678;28;20646;-74
2023/10/09 07:54:32;;;;;;;439.73;418.87;;;16.40;99.90;;;;;;5031422;28;20648;-74
2023/10/09 07:57:15;;;;;;;412.03;392.57;;;16.40;99.90;;;;;;5054028;28;20358;-75
2023/10/09 07:59:54;;;;;;;445.37;423.83;;;16.40;99.90;;;;;;5047855;28;21149;-74
2023/10/09 08:02:32;;;;;;;429.63;408.73;;;16.40;99.90;;;;;;5025450;28;20710;-74
2023/10/09 08:05:18;;;;;;;399.67;379.73;;;16.40;99.90;;;;;;5037396;28;20289;-74
2023/10/09 08:07:54;;;;;;;444.37;422.83;;;16.40;99.90;;;;;;5031337;28;20689;-74
2023/10/09 08:18:09;;;;;;;430.03;409.63;;;16.50;99.90;;;;;;5049057;28;20286;-74
2023/10/09 08:24:04;;;;;;;401.97;382.93;;;16.50;99.90;;;;;;5053435;28;20287;-74
2023/10/09 08:26:28;;;;;;;440.43;420.47;;;16.60;99.90;;;;;;5039718;28;20271;-74
2023/10/09 08:28:54;;;;;;;413.40;394.13;;;16.60;99.90;;;;;;5045447;28;20715;-74
2023/10/09 08:31:45;;;;;;;378.53;360.97;;;16.60;99.90;;;;;;5031463;28;20271;-74
2023/10/09 08:34:25;;;;;;;513.97;488.57;;;16.60;99.90;;;;;;5039081;28;20279;-74
2023/10/09 08:36:52;;;;;;;446.57;425.30;;;16.70;99.90;;;;;;5053908;28;20346;-74
2023/10/09 08:39:29;;;;;;;415.83;395.97;;;16.70;99.90;;;;;;5023083;28;20357;-74
2023/10/09 08:41:58;;;;;;;427.90;407.30;;;16.70;99.90;;;;;;5033623;28;20852;-74
2023/10/09 08:44:31;;;;;;;444.00;422.73;;;16.70;99.90;;;;;;5048978;28;20275;-74
2023/10/09 08:46:57;;;;;;;416.83;396.63;;;16.80;99.90;;;;;;5033111;28;20307;-75
2023/10/09 08:49:27;;;;;;;392.10;373.20;;;16.70;99.90;;;;;;5052961;28;21122;-74
2023/10/09 08:51:54;;;;;;;380.20;362.30;;;16.70;99.90;;;;;;5040280;28;20540;-74
2023/10/09 08:54:19;;;;;;;393.50;374.97;;;16.70;99.90;;;;;;5056479;28;20282;-75
2023/10/09 08:56:51;;;;;;;457.57;436.03;;;16.70;99.90;;;;;;5046157;28;20283;-74
2023/10/09 08:59:19;;;;;;;520.73;492.20;;;16.80;99.90;;;;;;5057318;28;20127;-75
2023/10/09 09:01:49;;;;;;;460.70;438.33;;;16.80;99.90;;;;;;5057012;28;20299;-75
2023/10/09 09:04:45;;;;;;;451.03;428.53;;;16.80;99.90;;;;;;5050590;28;20774;-74
2023/10/09 09:07:28;;;;;;;435.97;415.40;;;16.90;99.90;;;;;;5029942;28;20292;-74
2023/10/09 09:09:57;;;;;;;437.17;416.60;;;17.00;99.90;;;;;;5038214;28;20274;-75
2023/10/09 09:12:24;;;;;;;498.17;473.30;;;17.00;99.90;;;;;;5050219;28;20937;-75
2023/10/09 09:14:50;;;;;;;439.83;418.60;;;17.10;99.90;;;;;;5029943;28;20377;-75
2023/10/09 09:17:31;;;;;;;490.17;464.80;;;17.10;99.90;;;;;;5032894;28;20294;-75
2023/10/09 09:19:57;;;;;;;454.40;432.43;;;17.20;99.90;;;;;;5067502;28;20279;-75
2023/10/09 09:22:23;;;;;;;467.20;443.70;;;17.20;99.90;;;;;;5039963;28;20313;-74
2023/10/09 09:25:09;;;;;;;505.97;480.90;;;17.30;99.90;;;;;;5047039;28;20170;-74
2023/10/09 09:27:52;;;;;;;449.33;427.90;;;17.30;99.70;;;;;;5051924;28;20123;-74
2023/10/09 09:30:35;;;;;;;536.57;509.47;;;17.30;99.40;;;;;;5040547;28;20275;-75
2023/10/09 09:33:20;;;;;;;489.37;465.23;;;17.30;99.50;;;;;;5054792;28;20279;-75
2023/10/09 09:35:57;;;;;;;;;;;17.30;99.40;;;;;;5034058;28;20714;-74
2023/10/09 09:38:27;;;;;;;482.37;458.30;;;17.30;99.50;;;;;;5042076;28;19996;-75
2023/10/09 09:41:02;;;;;;;537.23;503.20;;;17.30;99.60;;;;;;5028512;28;20278;-74
2023/10/09 09:43:35;;;;;;;525.42;497.83;;;17.40;99.30;;;;;;5043471;28;20303;-75
2023/10/09 09:46:03;;;;;;;504.20;478.23;;;17.40;98.80;;;;;;5026565;28;20047;-74
2023/10/09 09:48:32;;;;;;;514.40;486.57;;;17.50;98.80;;;;;;5024909;28;20279;-74
2023/10/09 09:50:57;;;;;;;561.30;532.33;;;17.50;99.00;;;;;;5047079;28;20283;-74
2023/10/09 09:53:24;;;;;;;494.93;470.13;;;17.60;99.10;;;;;;5056945;28;20327;-74
2023/10/09 09:55:57;;;;;;;367.67;349.80;;;17.70;98.90;;;;;;5039607;28;20464;-74
2023/10/09 09:58:26;;;;;;;352.70;336.13;;;17.70;98.40;;;;;;5030506;28;20651;-74
2023/10/09 10:00:57;;;;;;;447.57;422.80;;;17.80;97.70;;;;;;5033914;28;20271;-74
2023/10/09 10:03:34;;;;;;;475.13;446.20;;;17.80;97.20;;;;;;5032178;28;20750;-74
2023/10/09 10:06:05;;;;;;;387.50;369.17;;;17.80;97.30;;;;;;5050793;28;20631;-74
2023/10/09 10:08:32;;;;;;;466.97;440.33;;;17.80;96.90;;;;;;5024831;28;21232;-74
2023/10/09 10:11:04;;;;;;;563.57;525.27;;;17.70;96.50;;;;;;5053021;28;20274;-74
2023/10/09 10:13:42;;;;;;;430.03;409.83;;;17.70;96.50;;;;;;5036586;28;20091;-74
2023/10/09 10:19:00;;;;;;;443.60;422.37;;;17.60;96.60;;;;;;5070160;28;20044;-74
2023/10/09 10:24:10;;;;;;;551.43;518.07;;;17.60;96.80;;;;;;5042170;28;20275;-74
2023/10/09 10:26:37;;;;;;;415.87;395.77;;;17.50;96.70;;;;;;5024806;28;20051;-74
2023/10/09 10:29:26;;;;;;;407.43;388.37;;;17.50;96.90;;;;;;5043405;28;20283;-75
2023/10/09 10:31:57;;;;;;;603.70;554.40;;;17.50;97.10;;;;;;5059153;28;20267;-74
2023/10/09 10:34:24;;;;;;;539.27;490.20;;;17.50;96.90;;;;;;5042456;28;20279;-74
2023/10/09 10:36:59;;;;;;;419.40;399.27;;;17.60;97.10;;;;;;5042200;28;20056;-74
2023/10/09 10:39:44;;;;;;;539.83;507.07;;;17.60;97.00;;;;;;5038015;28;20037;-74
2023/10/09 10:42:33;;;;;;;416.73;394.88;;;17.60;97.10;;;;;;5040005;28;20043;-74
2023/10/09 10:44:56;;;;;;;393.33;375.03;;;17.60;97.30;;;;;;5045880;28;20439;-74
2023/10/09 10:47:32;;;;;;;424.50;404.80;;;17.60;97.40;;;;;;5042379;28;20279;-75
2023/10/09 10:49:59;;;;;;;473.20;449.33;;;17.60;97.30;;;;;;5039519;28;20407;-74
2023/10/09 10:52:41;;;;;;;435.57;415.17;;;17.70;97.10;;;;;;5029946;28;20289;-74
2023/10/09 10:55:48;;;;;;;477.67;449.00;;;17.70;96.70;;;;;;5036511;28;20036;-74
2023/10/09 10:58:23;;;;;;;440.87;416.60;;;17.80;96.40;;;;;;5049216;28;20286;-74
2023/10/09 11:03:29;;;;;;;401.27;382.63;;;18.20;96.20;;;;;;5054049;28;20465;-74
2023/10/09 11:06:15;;;;;;;463.43;439.90;;;18.30;95.40;;;;;;5040271;28;20032;-74
2023/10/09 11:08:54;;;;;;;;;;;18.50;94.80;;;;;;5042418;28;20310;-74
2023/10/09 11:11:20;;;;;;;626.67;579.50;;;18.60;94.40;;;;;;5032035;28;19966;-75
2023/10/09 11:13:58;;;;;;;358.17;337.53;;;18.60;93.50;;;;;;5055370;28;20403;-75
2023/10/09 11:16:47;;;;;;;449.53;402.73;;;18.50;92.90;;;;;;5054906;28;20040;-74
2023/10/09 11:21:58;;;;;;;375.33;358.10;;;18.30;93.10;;;;;;5045913;28;20047;-74
2023/10/09 11:24:33;;;;;;;403.00;381.33;;;18.20;93.10;;;;;;5043861;28;20044;-74
2023/10/09 11:27:05;;;;;;;317.67;303.80;;;18.10;93.30;;;;;;5036726;28;20040;-74
2023/10/09 11:29:52;;;;;;;445.27;419.73;;;18.10;93.80;;;;;;5048727;28;20040;-74
2023/10/09 11:32:25;;;;;;;366.50;348.10;;;18.10;93.80;;;;;;5043878;28;20048;-75
2023/10/09 11:35:14;;;;;;;335.40;320.23;;;18.00;93.80;;;;;;5054066;28;20076;-74
2023/10/09 11:37:42;;;;;;;394.07;373.63;;;18.10;93.80;;;;;;5036974;28;20283;-74
2023/10/09 11:40:32;;;;;;;297.10;283.17;;;18.10;93.80;;;;;;5054566;28;20052;-74
2023/10/09 11:43:00;;;;;;;351.87;334.10;;;18.00;93.70;;;;;;5043640;28;20497;-74
2023/10/09 11:45:37;;;;;;;256.60;245.10;;;18.00;93.60;;;;;;5029853;28;20044;-74
2023/10/09 11:48:21;;;;;;;303.83;289.83;;;18.00;93.60;;;;;;5039134;28;20044;-74
2023/10/09 11:50:52;;;;;;;237.10;226.40;;;18.10;93.30;;;;;;5053205;28;20125;-74
2023/10/09 11:55:49;;;;;;;209.47;200.13;;;18.10;92.40;;;;;;5047196;28;20060;-74
2023/10/09 11:58:22;;;;;;;260.10;248.93;;;18.10;93.00;;;;;;5021015;28;20055;-74
2023/10/09 12:00:59;;;;;;;251.47;240.37;;;18.10;92.80;;;;;;5040922;28;20127;-74
2023/10/09 12:03:29;;;;;;;233.70;223.40;;;18.20;93.10;;;;;;5033895;28;20040;-74
2023/10/09 12:06:05;;;;;;;304.33;290.20;;;18.30;93.00;;;;;;5051883;28;20480;-74
2023/10/09 12:08:34;;;;;;;246.50;234.53;;;18.40;92.20;;;;;;5055692;28;20036;-74
2023/10/09 12:11:08;;;;;;;264.60;252.20;;;18.40;91.80;;;;;;5040786;28;20029;-74
2023/10/09 12:13:34;;;;;;;284.53;271.67;;;18.40;91.50;;;;;;5050811;28;20040;-74
2023/10/09 12:15:59;;;;;;;216.40;206.97;;;18.40;91.50;;;;;;5038780;28;20036;-74
2023/10/09 12:18:25;;;;;;;303.13;288.50;;;18.40;91.90;;;;;;5050218;28;20036;-74
2023/10/09 12:20:51;;;;;;;346.73;329.73;;;18.40;91.70;;;;;;5052068;28;20040;-74
2023/10/09 12:23:19;;;;;;;326.73;312.10;;;18.50;91.60;;;;;;5072373;28;20076;-74
2023/10/09 12:25:45;;;;;;;285.83;273.23;;;18.60;91.60;;;;;;5033463;28;20040;-74
2023/10/09 12:28:14;;;;;;;312.33;298.37;;;18.70;91.20;;;;;;5056219;28;20028;-74
2023/10/09 12:30:41;;;;;;;262.83;250.83;;;18.80;90.40;;;;;;5036502;28;20109;-74
2023/10/09 12:33:08;;;;;;;234.97;224.77;;;18.80;89.90;;;;;;5035070;28;20436;-74
2023/10/09 12:35:38;;;;;;;285.73;273.33;;;18.70;89.50;;;;;;5050108;28;20128;-74
2023/10/09 12:38:08;;;;;;;222.17;212.73;;;18.70;89.50;;;;;;5044329;28;20492;-74
2023/10/09 12:40:34;;;;;;;235.70;225.40;;;18.70;90.00;;;;;;5054773;28;20048;-74
2023/10/09 12:43:00;;;;;;;207.57;198.67;;;18.70;89.30;;;;;;5027284;28;20106;-74
2023/10/09 12:45:26;;;;;;;230.17;220.47;;;18.70;89.70;;;;;;5046299;28;20032;-74
2023/10/09 12:47:58;;;;;;;221.60;212.23;;;18.60;90.00;;;;;;5033987;28;20033;-74
2023/10/09 12:50:28;;;;;;;307.70;293.50;;;18.70;90.00;;;;;;5035090;28;20113;-74
2023/10/09 12:53:06;;;;;;;228.17;218.57;;;18.70;89.20;;;;;;5055942;28;20146;-74
2023/10/09 12:55:41;;;;;;;231.17;221.00;;;18.70;89.70;;;;;;5036808;28;20049;-74
2023/10/09 12:58:09;;;;;;;300.77;287.13;;;18.80;89.20;;;;;;5026039;28;20103;-74
2023/10/09 13:00:37;;;;;;;218.83;209.37;;;18.80;88.90;;;;;;5040913;28;20091;-74
2023/10/09 13:03:16;;;;;;;272.87;260.97;;;18.70;88.30;;;;;;5037081;28;20041;-73
2023/10/09 13:05:56;;;;;;;386.63;367.17;;;18.70;89.10;;;;;;5037316;28;20124;-74
2023/10/09 13:08:35;;;;;;;320.00;305.03;;;18.60;89.20;;;;;;5072261;28;20096;-74
2023/10/09 13:11:11;;;;;;;251.53;240.20;;;18.60;88.80;;;;;;5034638;28;20036;-74
2023/10/09 13:13:42;;;;;;;241.30;231.17;;;18.70;89.70;;;;;;5039342;28;20123;-74
2023/10/09 13:16:20;;;;;;;254.30;243.73;;;18.80;89.90;;;;;;5039277;28;20041;-74
2023/10/09 13:18:52;;;;;;;292.77;279.80;;;18.90;89.70;;;;;;5031650;28;20119;-74
2023/10/09 13:21:39;;;;;;;308.67;294.87;;;19.10;89.30;;;;;;5055494;28;20048;-74
2023/10/09 13:24:12;;;;;;;335.67;320.57;;;19.20;88.40;;;;;;5039200;28;20489;-74
2023/10/09 13:26:40;;;;;;;318.03;301.73;;;19.20;87.40;;;;;;5036662;28;20044;-74
2023/10/09 13:29:09;;;;;;;274.77;263.00;;;19.20;87.50;;;;;;5037489;28;20045;-74
2023/10/09 13:31:37;;;;;;;397.90;379.07;;;19.10;87.20;;;;;;5022966;28;20393;-74
2023/10/09 13:34:06;;;;;;;253.63;242.83;;;19.10;86.80;;;;;;5030935;28;20036;-73
2023/10/09 13:36:33;;;;;;;369.00;350.83;;;19.10;86.70;;;;;;5053276;28;20123;-73
2023/10/09 13:39:23;;;;;;;507.30;475.33;;;18.90;86.40;;;;;;5036592;28;20052;-74
2023/10/09 13:41:57;;;;;;;309.93;295.53;;;18.80;86.50;;;;;;5050201;28;20051;-74
2023/10/09 13:44:33;;;;;;;371.08;353.38;;;18.80;87.20;;;;;;5031976;28;20059;-74
2023/10/09 13:47:08;;;;;;;231.57;221.73;;;18.70;87.30;;;;;;5032994;28;20040;-74
2023/10/09 13:49:37;;;;;;;317.40;303.97;;;18.70;87.60;;;;;;5032655;28;20052;-74
2023/10/09 13:52:03;;;;;;;242.23;231.43;;;18.70;87.50;;;;;;5025569;28;20072;-74
2023/10/09 13:56:56;;;;;;;317.27;303.20;;;18.60;86.70;;;;;;5049928;28;20508;-73
2023/10/09 13:59:25;;;;;;;312.43;297.07;;;18.50;87.40;;;;;;5050584;28;20489;-74
2023/10/09 14:01:59;;;;;;;353.17;334.77;;;18.40;87.70;;;;;;5048616;28;20079;-74
2023/10/09 14:04:26;;;;;;;225.40;216.07;;;18.30;87.20;;;;;;5025861;28;20132;-73
2023/10/09 14:06:59;;;;;;;267.30;256.10;;;18.20;88.00;;;;;;5032618;28;20101;-73
2023/10/09 14:09:32;;;;;;;310.83;296.90;;;18.20;88.60;;;;;;5032258;28;20032;-73
2023/10/09 14:12:11;;;;;;;331.37;315.47;;;18.10;88.60;;;;;;5037366;28;20090;-73
2023/10/09 14:14:47;;;;;;;264.47;253.37;;;18.10;88.60;;;;;;5051483;28;20407;-73
2023/10/09 14:17:13;;;;;;;277.53;265.90;;;18.10;88.60;;;;;;5037237;28;20495;-73
2023/10/09 14:19:49;;;;;;;285.23;273.40;;;18.00;88.60;;;;;;5047399;28;20036;-73
2023/10/09 14:22:24;;;;;;;335.40;320.93;;;18.00;89.00;;;;;;5033713;28;20053;-73
2023/10/09 14:24:57;;;;;;;328.67;314.57;;;18.00;88.80;;;;;;5031319;28;20040;-73
2023/10/09 14:27:26;;;;;;;348.70;333.53;;;17.90;88.80;;;;;;5046124;28;20040;-73
2023/10/09 14:29:59;;;;;;;360.53;344.37;;;17.90;88.80;;;;;;5049409;28;20102;-74
2023/10/09 14:32:28;;;;;;;318.10;304.67;;;17.80;88.60;;;;;;5026780;28;20036;-73
2023/10/09 14:35:00;;;;;;;330.50;315.70;;;17.70;88.50;;;;;;5032438;28;20036;-73
2023/10/09 14:37:27;;;;;;;364.10;344.10;;;17.60;88.60;;;;;;5047120;28;20124;-74
2023/10/09 14:39:55;;;;;;;355.23;340.13;;;17.50;88.60;;;;;;5052028;28;20487;-73
2023/10/09 14:42:22;;;;;;;316.33;303.00;;;17.50;88.90;;;;;;5046161;28;20048;-73
2023/10/09 14:44:49;;;;;;;346.40;331.70;;;17.60;89.00;;;;;;5048604;28;20497;-73
2023/10/09 14:47:16;;;;;;;326.83;311.73;;;17.60;88.90;;;;;;5034248;28;20030;-73
2023/10/09 14:49:46;;;;;;;325.10;311.23;;;17.60;89.20;;;;;;5053464;28;20400;-74
2023/10/09 14:52:16;;;;;;;322.90;308.70;;;17.60;88.80;;;;;;5033499;28;20187;-73
2023/10/09 14:54:44;;;;;;;307.27;293.20;;;17.60;88.80;;;;;;5044093;28;20512;-73
2023/10/09 14:57:11;;;;;;;360.17;342.40;;;17.60;88.30;;;;;;5028053;28;20403;-73
2023/10/09 14:59:37;;;;;;;350.27;334.63;;;17.60;88.40;;;;;;5045852;28;20052;-73
2023/10/09 15:02:05;;;;;;;339.23;324.57;;;17.60;88.30;;;;;;5026269;28;20122;-73
2023/10/09 15:04:31;;;;;;;333.97;319.53;;;17.60;88.30;;;;;;5039040;28;20130;-73
2023/10/09 15:06:57;;;;;;;308.07;294.87;;;17.60;88.10;;;;;;5043904;28;20112;-74
2023/10/09 15:09:28;;;;;;;342.27;327.67;;;17.60;87.70;;;;;;5052931;28;20064;-73